Time;durP1;ratioP1;P1;durP2;ratioP2;P2;SDS_P1;SDS_P2;PMS_P1;PMS_P2;Temp;Humidity;BMP_temperature;BMP_pressure;BME280_temperature;BME280_humidity;BME280_pressure;Samples;Min_cycle;Max_cycle;Signal;HPM_P1;HPM_P2
2023/02/28 00:01:30;;;;;;;5.27;2.40;;;14.70;59.40;;;;;;5064948;28;20194;-46
2023/02/28 00:04:01;;;;;;;5.03;2.33;;;14.70;60.10;;;;;;5075815;28;20193;-45
2023/02/28 00:06:35;;;;;;;4.77;2.47;;;14.70;59.40;;;;;;5068870;28;20792;-46
2023/02/28 00:09:06;;;;;;;4.83;2.27;;;14.70;59.40;;;;;;5085261;28;20228;-46
2023/02/28 00:11:38;;;;;;;3.57;1.73;;;14.70;59.40;;;;;;5088638;28;20193;-46
2023/02/28 00:14:07;;;;;;;5.23;2.87;;;14.70;59.50;;;;;;5089460;28;20224;-46
2023/02/28 00:16:41;;;;;;;4.13;2.23;;;14.70;59.40;;;;;;5074183;28;20293;-46
2023/02/28 00:19:09;;;;;;;4.47;2.40;;;14.70;59.40;;;;;;5088127;28;20216;-45
2023/02/28 00:21:42;;;;;;;3.67;2.37;;;14.70;59.40;;;;;;5091271;28;20595;-46
2023/02/28 00:24:14;;;;;;;4.63;2.93;;;14.70;59.40;;;;;;5090431;28;20241;-48
2023/02/28 00:26:46;;;;;;;4.83;2.33;;;14.70;59.40;;;;;;5089784;28;20197;-46
2023/02/28 00:29:17;;;;;;;6.10;2.80;;;14.70;59.40;;;;;;5089677;28;20197;-46
2023/02/28 00:31:49;;;;;;;2.73;1.90;;;14.70;59.40;;;;;;5088359;28;20201;-46
2023/02/28 00:34:18;;;;;;;3.83;2.27;;;14.70;59.40;;;;;;5083261;28;20406;-46
2023/02/28 00:36:50;;;;;;;3.40;2.10;;;14.70;59.40;;;;;;5074477;28;20238;-46
2023/02/28 00:39:19;;;;;;;3.47;2.30;;;14.70;59.40;;;;;;5061813;28;20218;-46
2023/02/28 00:41:51;;;;;;;3.77;2.27;;;14.60;59.40;;;;;;5058985;28;20182;-46
2023/02/28 00:44:22;;;;;;;3.00;2.70;;;14.60;59.40;;;;;;5062647;28;20243;-46
2023/02/28 00:46:53;;;;;;;3.90;2.23;;;14.60;59.40;;;;;;5069229;28;20201;-46
2023/02/28 00:49:26;;;;;;;3.90;2.10;;;14.60;59.40;;;;;;5062112;28;21491;-46
2023/02/28 00:51:58;;;;;;;3.07;2.13;;;14.60;59.40;;;;;;5052427;28;20194;-46
2023/02/28 00:54:29;;;;;;;5.70;2.67;;;14.60;59.40;;;;;;5058132;28;20206;-46
2023/02/28 00:56:57;;;;;;;3.70;1.90;;;14.60;59.40;;;;;;5059829;28;20217;-45
2023/02/28 00:59:29;;;;;;;3.33;2.10;;;14.60;59.40;;;;;;5047670;28;20620;-46
2023/02/28 01:02:03;;;;;;;3.07;2.00;;;14.60;59.40;;;;;;5067584;28;20185;-46
2023/02/28 01:04:34;;;;;;;3.23;2.07;;;14.60;59.50;;;;;;5052009;28;20532;-46
2023/02/28 01:07:05;;;;;;;5.53;2.30;;;14.60;59.40;;;;;;5050588;28;20214;-46
2023/02/28 01:09:37;;;;;;;3.77;2.50;;;14.60;59.50;;;;;;5052541;28;20209;-46
2023/02/28 01:12:06;;;;;;;1.97;1.80;;;14.60;59.50;;;;;;5069333;28;20198;-45
2023/02/28 01:14:34;;;;;;;2.47;1.70;;;14.60;59.50;;;;;;5034063;28;20206;-46
2023/02/28 01:17:02;;;;;;;3.13;1.77;;;14.60;59.50;;;;;;5051984;28;20193;-45
2023/02/28 01:19:35;;;;;;;3.83;2.30;;;14.60;59.50;;;;;;5081128;28;20255;-45
2023/02/28 01:22:05;;;;;;;3.77;2.00;;;14.60;59.50;;;;;;5066652;28;20210;-46
2023/02/28 01:24:42;;;;;;;3.23;1.57;;;14.60;59.60;;;;;;5065555;28;20201;-46
2023/02/28 01:27:18;;;;;;;2.93;2.13;;;14.60;59.60;;;;;;5070591;28;20558;-46
2023/02/28 01:29:47;;;;;;;3.17;1.70;;;14.50;59.50;;;;;;5072137;28;20209;-45
2023/02/28 01:32:23;;;;;;;2.87;1.60;;;14.50;59.50;;;;;;5065779;28;20189;-46
2023/02/28 01:34:51;;;;;;;2.13;1.70;;;14.50;59.50;;;;;;5076269;28;20245;-46
2023/02/28 01:37:20;;;;;;;3.17;1.97;;;14.50;59.50;;;;;;5096825;28;20229;-46
2023/02/28 01:39:52;;;;;;;3.10;1.67;;;14.50;59.60;;;;;;5076993;28;20197;-46
2023/02/28 01:42:20;;;;;;;2.60;1.90;;;14.50;59.60;;;;;;5079237;28;20196;-46
2023/02/28 01:45:15;;;;;;;2.33;2.13;;;14.50;59.60;;;;;;5077965;28;20670;-45
2023/02/28 01:47:52;;;;;;;2.87;1.90;;;14.50;59.60;;;;;;5080367;28;20193;-46
2023/02/28 01:50:40;;;;;;;2.80;1.67;;;14.50;59.60;;;;;;5086687;28;20652;-46
2023/02/28 01:53:26;;;;;;;2.13;1.63;;;14.50;59.60;;;;;;5066230;28;20193;-45
2023/02/28 01:55:58;;;;;;;1.97;1.77;;;14.50;59.60;;;;;;5091607;28;20188;-46
2023/02/28 01:58:30;;;;;;;2.13;1.83;;;14.50;59.60;;;;;;5090306;28;20189;-46
2023/02/28 02:01:02;;;;;;;2.50;1.80;;;14.50;59.70;;;;;;5076905;28;20216;-46
2023/02/28 02:03:39;;;;;;;2.73;1.70;;;14.50;59.80;;;;;;5077427;28;20197;-46
2023/02/28 02:06:11;;;;;;;2.73;1.73;;;14.50;59.60;;;;;;5094585;28;20598;-45
2023/02/28 02:08:54;;;;;;;3.83;2.00;;;14.50;59.70;;;;;;5091898;28;20292;-46
2023/02/28 02:11:26;;;;;;;2.23;1.73;;;14.50;59.70;;;;;;5075542;28;20189;-46
2023/02/28 02:14:10;;;;;;;1.60;1.40;;;14.50;59.80;;;;;;5095248;28;20221;-46
2023/02/28 02:16:52;;;;;;;2.70;1.23;;;14.50;59.70;;;;;;5086654;28;20192;-45
2023/02/28 02:19:53;;;;;;;2.10;1.90;;;14.50;59.80;;;;;;5086758;28;20589;-45
2023/02/28 02:22:52;;;;;;;2.60;2.30;;;14.50;59.80;;;;;;5086591;28;20232;-47
2023/02/28 02:25:50;;;;;;;1.73;1.63;;;14.50;59.80;;;;;;5062239;28;20207;-46
2023/02/28 02:28:59;;;;;;;1.80;1.70;;;14.50;59.80;;;;;;5087716;28;20182;-46
2023/02/28 02:32:06;;;;;;;3.67;1.93;;;14.40;59.70;;;;;;5076205;28;20745;-46
2023/02/28 02:34:57;;;;;;;1.57;1.43;;;14.50;59.80;;;;;;5050418;28;20284;-47
2023/02/28 02:37:52;;;;;;;1.63;1.47;;;14.40;59.70;;;;;;5087697;28;20232;-46
2023/02/28 02:40:48;;;;;;;1.97;1.67;;;14.40;59.70;;;;;;5087820;28;20196;-46
2023/02/28 02:43:25;;;;;;;1.57;1.20;;;14.40;59.80;;;;;;5081319;28;20274;-45
2023/02/28 02:46:19;;;;;;;1.63;1.53;;;14.40;59.80;;;;;;5068017;28;20273;-46
2023/02/28 02:48:54;;;;;;;2.10;1.40;;;14.50;59.80;;;;;;5072817;28;20314;-46
2023/02/28 02:51:24;;;;;;;1.90;1.70;;;14.40;59.80;;;;;;5069944;28;20282;-46
2023/02/28 02:53:57;;;;;;;1.60;1.50;;;14.40;59.80;;;;;;5070912;28;20240;-46
2023/02/28 02:56:33;;;;;;;1.80;1.27;;;14.40;59.80;;;;;;5066653;28;20192;-46
2023/02/28 02:59:07;;;;;;;1.90;1.40;;;14.40;59.70;;;;;;5089508;28;20196;-46
2023/02/28 03:01:41;;;;;;;1.80;1.50;;;14.40;59.80;;;;;;5073624;28;20191;-46
2023/02/28 03:04:19;;;;;;;2.73;2.07;;;14.40;59.70;;;;;;5089946;28;20201;-46
2023/02/28 03:06:48;;;;;;;1.97;1.30;;;14.40;59.70;;;;;;5071048;28;20211;-46
2023/02/28 03:09:16;;;;;;;2.10;1.70;;;14.40;59.70;;;;;;5086786;28;20248;-46
2023/02/28 03:11:49;;;;;;;2.57;1.40;;;14.40;59.70;;;;;;5094235;28;20615;-45
2023/02/28 03:14:46;;;;;;;1.50;1.40;;;14.40;59.70;;;;;;5065126;28;20240;-46
2023/02/28 03:17:47;;;;;;;2.07;1.83;;;14.40;59.80;;;;;;5088288;28;20808;-46
2023/02/28 03:20:40;;;;;;;1.87;1.63;;;14.30;59.70;;;;;;5087099;28;20650;-45
2023/02/28 03:23:19;;;;;;;2.43;2.10;;;14.30;59.80;;;;;;5076969;28;20685;-46
2023/02/28 03:26:14;;;;;;;1.97;1.70;;;14.30;59.70;;;;;;5083654;28;20193;-46
2023/02/28 03:28:52;;;;;;;1.40;1.20;;;14.30;59.80;;;;;;5078022;28;20193;-46
2023/02/28 03:31:57;;;;;;;2.10;1.53;;;14.40;59.80;;;;;;5088917;28;20600;-46
2023/02/28 03:34:44;;;;;;;2.23;1.97;;;14.30;59.70;;;;;;5005557;28;20257;-47
2023/02/28 03:37:18;;;;;;;2.60;1.60;;;14.30;59.80;;;;;;5063381;28;20690;-46
2023/02/28 03:39:59;;;;;;;1.60;1.47;;;14.30;59.80;;;;;;5091786;28;20196;-46
2023/02/28 03:42:34;;;;;;;1.97;1.70;;;14.30;59.80;;;;;;5079080;28;20571;-46
2023/02/28 03:45:22;;;;;;;2.80;1.50;;;14.30;59.70;;;;;;5058080;28;20213;-46
2023/02/28 03:48:23;;;;;;;2.20;1.83;;;14.30;59.70;;;;;;5088233;28;20211;-45
2023/02/28 03:50:54;;;;;;;2.30;1.60;;;14.30;59.80;;;;;;5062258;28;20213;-46
2023/02/28 03:53:47;;;;;;;1.60;1.50;;;14.30;59.80;;;;;;5082937;28;20192;-47
2023/02/28 03:56:37;;;;;;;2.30;1.33;;;14.30;59.80;;;;;;5088971;28;20220;-46
2023/02/28 03:59:21;;;;;;;4.07;1.80;;;14.30;59.70;;;;;;5060388;28;20357;-46
2023/02/28 04:01:52;;;;;;;2.03;1.43;;;14.30;59.70;;;;;;5088987;28;20185;-46
2023/02/28 04:04:22;;;;;;;1.60;1.47;;;14.30;59.70;;;;;;5088927;28;20211;-46
2023/02/28 04:07:06;;;;;;;2.23;1.63;;;14.30;59.70;;;;;;5067615;28;20311;-46
2023/02/28 04:09:41;;;;;;;2.57;2.20;;;14.30;59.80;;;;;;5068962;28;20269;-46
2023/02/28 04:12:11;;;;;;;1.63;1.53;;;14.30;59.70;;;;;;5088766;28;20484;-46
2023/02/28 04:14:41;;;;;;;1.80;1.27;;;14.30;59.80;;;;;;5085403;28;20934;-46
2023/02/28 04:17:12;;;;;;;1.60;1.50;;;14.30;59.80;;;;;;5088890;28;20295;-46
2023/02/28 04:19:40;;;;;;;1.53;1.37;;;14.30;59.70;;;;;;5081826;28;20283;-46
2023/02/28 04:22:09;;;;;;;2.63;1.80;;;14.30;59.80;;;;;;5063507;28;20221;-45
2023/02/28 04:24:41;;;;;;;1.57;1.20;;;14.30;59.80;;;;;;5084759;28;20197;-46
2023/02/28 04:27:16;;;;;;;1.60;1.50;;;14.20;59.80;;;;;;5085659;28;20230;-46
2023/02/28 04:29:44;;;;;;;2.17;1.97;;;14.30;59.80;;;;;;5088135;28;20254;-46
2023/02/28 04:32:14;;;;;;;2.03;1.87;;;14.20;59.80;;;;;;5087512;28;20197;-46
2023/02/28 04:34:43;;;;;;;1.97;1.77;;;14.30;59.80;;;;;;5084987;28;20278;-45
2023/02/28 04:37:15;;;;;;;1.53;1.40;;;14.20;59.70;;;;;;5092589;28;20220;-47
2023/02/28 04:39:53;;;;;;;3.00;1.93;;;14.20;59.70;;;;;;5088726;28;20185;-46
2023/02/28 04:42:26;;;;;;;2.13;1.80;;;14.30;59.80;;;;;;5084609;28;20204;-46
2023/02/28 04:44:59;;;;;;;2.17;1.80;;;14.20;59.80;;;;;;5084708;28;20201;-46
2023/02/28 04:47:28;;;;;;;2.10;1.90;;;14.20;59.80;;;;;;5087674;28;20197;-45
2023/02/28 04:49:59;;;;;;;1.80;1.57;;;14.20;59.90;;;;;;5088423;28;20204;-46
2023/02/28 04:52:28;;;;;;;2.00;1.83;;;14.20;59.80;;;;;;5083843;28;20610;-45
2023/02/28 04:54:59;;;;;;;1.87;1.70;;;14.20;59.80;;;;;;5088683;28;20306;-46
2023/02/28 04:57:31;;;;;;;1.87;1.77;;;14.20;59.70;;;;;;5088907;28;20238;-46
2023/02/28 04:59:59;;;;;;;1.77;1.67;;;14.20;59.80;;;;;;5091746;28;20202;-46
2023/02/28 05:02:30;;;;;;;1.80;1.50;;;14.20;59.80;;;;;;5065956;28;20233;-46
2023/02/28 05:05:05;;;;;;;1.83;1.57;;;14.20;59.80;;;;;;5087569;28;20545;-46
2023/02/28 05:07:36;;;;;;;3.50;2.13;;;14.20;59.80;;;;;;5080454;28;20629;-46
2023/02/28 05:10:07;;;;;;;1.87;1.60;;;14.20;59.80;;;;;;5073160;28;20222;-46
2023/02/28 05:12:38;;;;;;;2.90;1.97;;;14.20;59.90;;;;;;5075748;28;20814;-46
2023/02/28 05:15:13;;;;;;;2.03;1.57;;;14.20;59.90;;;;;;5073872;28;20228;-46
2023/02/28 05:17:43;;;;;;;2.00;1.87;;;14.20;59.90;;;;;;5074722;28;20207;-47
2023/02/28 05:20:15;;;;;;;1.50;1.40;;;14.20;59.90;;;;;;5088249;28;20197;-46
2023/02/28 05:22:44;;;;;;;2.37;1.70;;;14.20;59.90;;;;;;5086906;28;20255;-46
2023/02/28 05:25:19;;;;;;;2.47;1.80;;;14.20;59.90;;;;;;5070066;28;20215;-46
2023/02/28 05:27:51;;;;;;;1.40;1.30;;;14.10;59.80;;;;;;5069985;28;20200;-46
2023/02/28 05:30:22;;;;;;;1.67;1.53;;;14.20;59.90;;;;;;5084307;28;20189;-46
2023/02/28 05:32:53;;;;;;;1.30;1.17;;;14.20;59.90;;;;;;5082542;28;20220;-47
2023/02/28 05:35:27;;;;;;;2.77;1.87;;;14.10;59.80;;;;;;5091052;28;20212;-45
2023/02/28 05:37:56;;;;;;;1.50;1.40;;;14.20;59.90;;;;;;5070348;28;20193;-46
2023/02/28 05:40:26;;;;;;;1.70;1.60;;;14.20;59.80;;;;;;5084512;28;20604;-46
2023/02/28 05:42:56;;;;;;;3.23;1.67;;;14.20;59.80;;;;;;5074159;28;20197;-46
2023/02/28 05:45:30;;;;;;;1.63;1.53;;;14.20;59.80;;;;;;5086783;28;20653;-46
2023/02/28 05:48:03;;;;;;;2.53;1.57;;;14.20;59.80;;;;;;5083617;28;20693;-45
2023/02/28 05:50:35;;;;;;;1.33;1.23;;;14.10;59.70;;;;;;5084901;28;20193;-46
2023/02/28 05:53:08;;;;;;;1.63;1.40;;;14.10;59.80;;;;;;5087213;28;20578;-46
2023/02/28 05:55:37;;;;;;;1.40;1.30;;;14.20;59.90;;;;;;5069402;28;20208;-47
2023/02/28 05:58:09;;;;;;;1.80;1.70;;;14.10;59.80;;;;;;5079267;28;20193;-46
2023/02/28 06:00:42;;;;;;;1.87;1.67;;;14.20;59.80;;;;;;5079650;28;20635;-46
2023/02/28 06:03:14;;;;;;;1.97;1.80;;;14.20;59.70;;;;;;5086505;28;20657;-46
2023/02/28 06:05:44;;;;;;;1.87;1.77;;;14.20;59.70;;;;;;5086510;28;20189;-46
2023/02/28 06:08:14;;;;;;;2.00;1.90;;;14.20;59.70;;;;;;5087363;28;20224;-46
2023/02/28 06:10:43;;;;;;;1.50;1.40;;;14.10;59.70;;;;;;5084320;28;20224;-45
2023/02/28 06:13:15;;;;;;;1.53;1.43;;;14.10;59.70;;;;;;5085836;28;20229;-46
2023/02/28 06:15:46;;;;;;;2.17;1.20;;;14.10;59.70;;;;;;5087727;28;20239;-46
2023/02/28 06:18:18;;;;;;;1.37;1.20;;;14.10;59.60;;;;;;5074431;28;20250;-46
2023/02/28 06:20:54;;;;;;;1.70;1.30;;;14.10;59.60;;;;;;5078988;28;20243;-46
2023/02/28 06:23:27;;;;;;;1.90;1.50;;;14.10;59.70;;;;;;5053653;28;20207;-46
2023/02/28 06:25:59;;;;;;;1.50;1.40;;;14.10;59.60;;;;;;5089530;28;20209;-46
2023/02/28 06:28:32;;;;;;;1.87;1.53;;;14.10;59.60;;;;;;5087828;28;20253;-46
2023/02/28 06:31:10;;;;;;;1.80;1.40;;;14.10;59.60;;;;;;5089349;28;20641;-46
2023/02/28 06:33:40;;;;;;;1.80;1.33;;;14.10;59.70;;;;;;5073451;28;20245;-46
2023/02/28 06:36:11;;;;;;;1.53;1.43;;;14.10;59.60;;;;;;5070844;28;20229;-46
2023/02/28 06:38:40;;;;;;;2.53;1.77;;;14.10;59.50;;;;;;5072241;28;20189;-46
2023/02/28 06:41:11;;;;;;;1.67;1.57;;;14.10;59.50;;;;;;5073440;28;20207;-46
2023/02/28 06:43:57;;;;;;;1.20;1.10;;;14.10;59.50;;;;;;5089576;28;20216;-51
2023/02/28 06:46:38;;;;;;;1.70;1.60;;;14.10;59.50;;;;;;5071982;28;20197;-46
2023/02/28 06:49:08;;;;;;;1.83;1.50;;;14.10;59.50;;;;;;5090030;28;20637;-46
2023/02/28 06:51:44;;;;;;;1.80;1.70;;;14.10;59.50;;;;;;5046479;28;20197;-46
2023/02/28 06:54:13;;;;;;;2.20;2.00;;;14.10;59.50;;;;;;5085831;28;20209;-46
2023/02/28 06:56:48;;;;;;;1.93;1.60;;;14.10;59.50;;;;;;5073721;28;20232;-46
2023/02/28 06:59:16;;;;;;;3.00;1.70;;;14.10;59.50;;;;;;5068362;28;20369;-46
2023/02/28 07:01:54;;;;;;;1.90;1.70;;;14.10;59.50;;;;;;5071253;28;20193;-46
2023/02/28 07:04:26;;;;;;;2.07;1.73;;;14.10;59.40;;;;;;5069451;28;20247;-46
2023/02/28 07:06:57;;;;;;;2.50;1.63;;;14.10;59.40;;;;;;5088688;28;20239;-46
2023/02/28 07:09:29;;;;;;;2.10;2.00;;;14.10;60.00;;;;;;5071104;28;20639;-46
2023/02/28 07:12:01;;;;;;;2.17;1.97;;;14.10;59.40;;;;;;5084288;28;20235;-46
2023/02/28 07:14:31;;;;;;;2.87;1.63;;;14.10;59.40;;;;;;5083945;28;20208;-46
2023/02/28 07:17:01;;;;;;;2.20;2.00;;;14.10;59.40;;;;;;5088480;28;20353;-46
2023/02/28 07:19:31;;;;;;;1.97;1.50;;;14.10;59.30;;;;;;5087031;28;20181;-46
2023/02/28 07:22:02;;;;;;;2.10;1.80;;;14.00;59.30;;;;;;5087250;28;20200;-46
2023/02/28 07:24:30;;;;;;;3.03;2.00;;;14.10;59.30;;;;;;5080461;28;20278;-46
2023/02/28 07:27:01;;;;;;;3.27;1.90;;;14.00;59.30;;;;;;5088981;28;20274;-46
2023/02/28 07:29:31;;;;;;;2.03;1.83;;;14.10;59.30;;;;;;5069136;28;20807;-46
2023/02/28 07:32:05;;;;;;;2.50;1.70;;;14.00;59.30;;;;;;5077654;28;20599;-45
2023/02/28 07:34:38;;;;;;;2.63;1.80;;;14.10;59.30;;;;;;5073969;28;20200;-46
2023/02/28 07:37:11;;;;;;;45.57;8.73;;;14.10;60.10;;;;;;5077441;28;20241;-46
2023/02/28 07:39:42;;;;;;;35.43;5.73;;;14.30;60.80;;;;;;5088826;28;20200;-46
2023/02/28 07:42:13;;;;;;;26.03;6.90;;;14.60;61.70;;;;;;5084141;28;20228;-46
2023/02/28 07:44:45;;;;;;;24.23;5.70;;;14.90;61.10;;;;;;5087715;28;20189;-47
2023/02/28 07:47:16;;;;;;;26.80;5.53;;;15.30;60.60;;;;;;5086788;28;20776;-46
2023/02/28 07:49:48;;;;;;;21.27;5.53;;;15.60;59.80;;;;;;5088316;28;20189;-46
2023/02/28 07:52:17;;;;;;;23.40;5.53;;;15.90;59.30;;;;;;5087886;28;20208;-46
2023/02/28 07:54:59;;;;;;;15.27;4.50;;;16.20;58.80;;;;;;5096380;28;20188;-46
2023/02/28 07:57:30;;;;;;;25.20;4.97;;;16.40;57.90;;;;;;5092096;28;20197;-46
2023/02/28 08:00:07;;;;;;;18.23;4.83;;;16.70;55.60;;;;;;5067369;28;20232;-47
2023/02/28 08:02:37;;;;;;;17.33;4.63;;;16.80;54.70;;;;;;5084875;28;20205;-47
2023/02/28 08:05:10;;;;;;;8.40;3.43;;;17.00;55.30;;;;;;5084136;28;20200;-47
2023/02/28 08:07:40;;;;;;;14.00;4.17;;;17.30;55.20;;;;;;5077230;28;20221;-49
2023/02/28 08:10:12;;;;;;;11.17;3.93;;;17.50;54.90;;;;;;5074366;28;20518;-47
2023/02/28 08:12:40;;;;;;;13.00;3.87;;;17.80;54.70;;;;;;5068203;28;20302;-47
2023/02/28 08:15:10;;;;;;;10.93;3.60;;;18.00;53.90;;;;;;5073331;28;20231;-47
2023/02/28 08:17:38;;;;;;;9.37;2.93;;;18.20;53.90;;;;;;5074830;28;20256;-47
2023/02/28 08:20:10;;;;;;;10.70;3.00;;;18.40;53.70;;;;;;5056820;28;20231;-48
2023/02/28 08:22:41;;;;;;;12.70;3.23;;;18.60;53.30;;;;;;5062933;28;24860;-48
2023/02/28 08:25:12;;;;;;;8.77;2.70;;;18.70;53.10;;;;;;5063370;28;20212;-46
2023/02/28 08:27:44;;;;;;;15.07;3.13;;;18.90;52.70;;;;;;5088931;28;20615;-47
2023/02/28 08:30:14;;;;;;;7.00;2.67;;;19.00;52.30;;;;;;5093508;28;20224;-47
2023/02/28 08:32:45;;;;;;;5.60;2.13;;;19.20;52.80;;;;;;5069586;28;20197;-47
2023/02/28 08:35:17;;;;;;;6.83;2.50;;;19.10;51.30;;;;;;5084112;28;20285;-47
2023/02/28 08:37:53;;;;;;;8.10;2.87;;;19.00;50.60;;;;;;5081428;28;20940;-47
2023/02/28 08:40:25;;;;;;;4.97;2.37;;;18.90;51.10;;;;;;5050185;28;20223;-46
2023/02/28 08:42:59;;;;;;;5.33;2.30;;;18.70;50.60;;;;;;5069296;28;20182;-47
2023/02/28 08:45:31;;;;;;;7.57;2.57;;;18.60;50.80;;;;;;5087991;28;20732;-47
2023/02/28 08:48:06;;;;;;;6.33;2.40;;;18.60;51.10;;;;;;5088229;28;20274;-46
2023/02/28 08:50:36;;;;;;;6.17;2.07;;;18.50;50.80;;;;;;5085353;28;20192;-47
2023/02/28 08:53:05;;;;;;;4.77;1.97;;;18.40;51.10;;;;;;5068898;28;20211;-46
2023/02/28 08:55:35;;;;;;;5.07;2.00;;;18.40;51.10;;;;;;5071125;28;20231;-48
2023/02/28 08:58:07;;;;;;;5.67;2.17;;;18.30;51.00;;;;;;5074776;28;20194;-47
2023/02/28 09:00:39;;;;;;;7.27;2.10;;;18.30;51.50;;;;;;5053109;28;20414;-47
2023/02/28 09:03:11;;;;;;;5.27;2.43;;;18.30;51.00;;;;;;5086997;28;20672;-47
2023/02/28 09:05:57;;;;;;;4.70;1.90;;;18.30;51.70;;;;;;5080703;28;20213;-47
2023/02/28 09:08:30;;;;;;;4.50;1.97;;;18.30;51.60;;;;;;5059598;28;20236;-47
2023/02/28 09:11:01;;;;;;;4.80;1.97;;;18.20;51.40;;;;;;5081262;28;20787;-48
2023/02/28 09:13:32;;;;;;;5.30;1.97;;;18.20;52.90;;;;;;5082456;28;20285;-48
2023/02/28 09:16:08;;;;;;;6.57;1.80;;;18.40;52.60;;;;;;5088734;28;20217;-48
2023/02/28 09:18:40;;;;;;;3.17;1.90;;;18.70;52.50;;;;;;5067702;28;20214;-48
2023/02/28 09:21:13;;;;;;;3.70;2.23;;;18.90;52.30;;;;;;5055413;28;20182;-46
2023/02/28 09:23:51;;;;;;;3.33;1.50;;;19.00;51.00;;;;;;5072242;28;20209;-46
2023/02/28 09:26:24;;;;;;;2.23;1.60;;;18.90;50.40;;;;;;5067387;28;20271;-47
2023/02/28 09:29:11;;;;;;;4.37;1.53;;;18.80;50.50;;;;;;5063336;28;20208;-46
2023/02/28 09:31:39;;;;;;;2.23;1.50;;;18.70;50.70;;;;;;5069118;28;20197;-46
2023/02/28 09:34:10;;;;;;;2.33;1.40;;;18.70;50.60;;;;;;5096874;28;20192;-46
2023/02/28 09:36:40;;;;;;;2.40;1.30;;;18.70;50.40;;;;;;5070440;28;20574;-46
2023/02/28 09:39:15;;;;;;;2.40;1.27;;;18.60;50.70;;;;;;5067392;28;20247;-47
2023/02/28 09:41:58;;;;;;;2.50;1.30;;;18.60;50.30;;;;;;5066857;28;20686;-48
2023/02/28 09:44:46;;;;;;;5.63;1.60;;;18.60;50.30;;;;;;5049970;28;20213;-47
2023/02/28 09:47:33;;;;;;;1.73;1.10;;;18.50;51.20;;;;;;5063836;28;20206;-46
2023/02/28 09:50:27;;;;;;;2.53;1.20;;;18.50;50.30;;;;;;5065031;28;20221;-47
2023/02/28 09:53:01;;;;;;;2.00;0.97;;;18.50;51.20;;;;;;5059771;28;20190;-48
2023/02/28 09:55:49;;;;;;;2.13;1.40;;;18.40;51.40;;;;;;5040766;28;20200;-48
2023/02/28 09:59:08;;;;;;;2.50;1.43;;;18.50;51.40;;;;;;5058977;28;20789;-48
2023/02/28 10:01:56;;;;;;;1.90;0.97;;;18.50;50.90;;;;;;4960653;28;20271;-46
2023/02/28 10:04:43;;;;;;;2.70;1.60;;;18.50;50.90;;;;;;4986005;28;20654;-47
2023/02/28 10:07:23;;;;;;;2.10;1.00;;;18.50;51.20;;;;;;5071339;28;20573;-47
2023/02/28 10:09:57;;;;;;;3.57;1.23;;;18.50;51.20;;;;;;5046758;28;20708;-47
2023/02/28 10:12:36;;;;;;;1.87;1.30;;;18.50;51.40;;;;;;5033053;28;20287;-47
2023/02/28 10:15:08;;;;;;;1.20;1.10;;;18.40;49.30;;;;;;5063109;28;20199;-47
2023/02/28 10:17:43;;;;;;;3.83;1.20;;;18.20;49.30;;;;;;5059684;28;20721;-46
2023/02/28 10:20:40;;;;;;;1.10;0.80;;;18.10;49.90;;;;;;5050200;28;20198;-47
2023/02/28 10:23:34;;;;;;;1.23;1.13;;;18.00;50.30;;;;;;5058924;28;20638;-47
2023/02/28 10:26:15;;;;;;;0.97;0.87;;;17.90;50.30;;;;;;5019842;28;20708;-47
2023/02/28 10:28:44;;;;;;;1.77;1.50;;;17.80;50.50;;;;;;5054139;28;20232;-47
2023/02/28 10:31:20;;;;;;;1.73;1.07;;;17.80;50.60;;;;;;5052607;28;20716;-47
2023/02/28 10:33:58;;;;;;;1.73;1.00;;;17.60;50.70;;;;;;5070206;28;20209;-46
2023/02/28 10:36:29;;;;;;;1.07;0.97;;;17.50;50.60;;;;;;5067055;28;20237;-47
2023/02/28 10:39:00;;;;;;;1.80;1.30;;;17.50;50.50;;;;;;5080343;28;20563;-47
2023/02/28 10:41:41;;;;;;;1.00;0.90;;;17.40;50.60;;;;;;5064890;28;20611;-47
2023/02/28 10:44:23;;;;;;;1.47;0.80;;;17.60;51.50;;;;;;5082046;28;20193;-46
2023/02/28 10:46:53;;;;;;;2.20;0.80;;;17.90;51.60;;;;;;5049612;28;20244;-47
2023/02/28 10:49:28;;;;;;;1.33;1.03;;;18.20;51.50;;;;;;5079955;28;20225;-46
2023/02/28 10:52:01;;;;;;;1.63;0.80;;;18.40;51.30;;;;;;5054990;28;20196;-46
2023/02/28 10:54:37;;;;;;;0.97;0.80;;;18.70;51.70;;;;;;5073990;28;20194;-48
2023/02/28 10:57:20;;;;;;;1.43;0.93;;;18.90;50.90;;;;;;5076835;28;20757;-47
2023/02/28 11:00:25;;;;;;;0.90;0.70;;;19.20;50.80;;;;;;5055434;28;20608;-47
2023/02/28 11:03:30;;;;;;;0.93;0.80;;;19.40;50.60;;;;;;5074202;28;20224;-47
2023/02/28 11:06:17;;;;;;;1.27;0.63;;;19.70;49.50;;;;;;5053000;28;20519;-47
2023/02/28 11:09:32;;;;;;;0.67;0.50;;;19.70;49.80;;;;;;5076003;28;20196;-49
2023/02/28 11:12:19;;;;;;;1.37;0.60;;;20.00;49.60;;;;;;5074731;28;20213;-48
2023/02/28 11:15:01;;;;;;;1.03;0.63;;;20.10;49.30;;;;;;5071656;28;20537;-46
2023/02/28 11:17:33;;;;;;;0.80;0.60;;;20.30;49.20;;;;;;5058110;28;20213;-48
2023/02/28 11:20:06;;;;;;;0.80;0.60;;;20.50;48.80;;;;;;5060095;28;20198;-48
2023/02/28 11:22:45;;;;;;;0.97;0.83;;;20.60;48.70;;;;;;5067741;28;20302;-46
2023/02/28 11:25:27;;;;;;;1.00;0.70;;;20.70;48.60;;;;;;5038632;28;20236;-47
2023/02/28 11:28:06;;;;;;;1.57;0.83;;;20.60;48.30;;;;;;5063686;28;20189;-48
2023/02/28 11:30:40;;;;;;;2.77;0.90;;;20.50;48.30;;;;;;5060152;28;20792;-47
2023/02/28 11:33:31;;;;;;;1.20;0.70;;;20.20;45.20;;;;;;5059009;28;20193;-46
2023/02/28 11:36:15;;;;;;;1.50;0.90;;;19.90;45.90;;;;;;5076757;28;20600;-48
2023/02/28 11:38:52;;;;;;;0.83;0.70;;;19.60;46.60;;;;;;5064923;28;20198;-47
2023/02/28 11:41:42;;;;;;;1.43;0.90;;;19.40;47.00;;;;;;5068486;28;20201;-47
2023/02/28 11:44:29;;;;;;;0.87;0.60;;;19.20;47.30;;;;;;5067418;28;20587;-47
2023/02/28 11:47:12;;;;;;;1.10;1.00;;;19.00;47.70;;;;;;5050019;28;20225;-47
2023/02/28 11:49:52;;;;;;;0.93;0.80;;;18.90;48.10;;;;;;5053068;28;20543;-47
2023/02/28 11:52:58;;;;;;;0.93;0.80;;;18.80;48.50;;;;;;5069215;28;20197;-47
2023/02/28 11:55:48;;;;;;;1.30;1.20;;;18.70;48.70;;;;;;5057240;28;20206;-47
2023/02/28 11:58:33;;;;;;;0.70;0.70;;;18.50;49.00;;;;;;5046341;28;20565;-46
2023/02/28 12:01:25;;;;;;;0.87;0.73;;;18.40;49.30;;;;;;5046026;28;20228;-46
2023/02/28 12:04:25;;;;;;;1.33;1.10;;;18.30;49.30;;;;;;5066504;28;20206;-47
2023/02/28 12:07:16;;;;;;;1.27;1.00;;;18.30;49.40;;;;;;5067872;28;20631;-47
2023/02/28 12:10:21;;;;;;;1.40;1.20;;;18.20;49.50;;;;;;5068030;28;20217;-48
2023/02/28 12:13:19;;;;;;;0.87;0.70;;;18.10;49.60;;;;;;5026928;28;20214;-48
2023/02/28 12:16:19;;;;;;;1.23;1.00;;;18.00;49.70;;;;;;5066686;28;20198;-48
2023/02/28 12:19:14;;;;;;;1.53;0.83;;;18.00;49.90;;;;;;5061291;28;20185;-47
2023/02/28 12:22:09;;;;;;;1.47;1.00;;;18.00;49.80;;;;;;5063472;28;20186;-48
2023/02/28 12:24:57;;;;;;;1.33;1.20;;;17.90;49.90;;;;;;5062091;28;20636;-48
2023/02/28 12:27:34;;;;;;;1.73;0.97;;;17.90;50.00;;;;;;5080101;28;20259;-47
2023/02/28 12:30:36;;;;;;;1.03;0.93;;;17.90;49.80;;;;;;5051521;28;20205;-47
2023/02/28 12:33:21;;;;;;;0.97;0.87;;;17.80;49.90;;;;;;5064503;28;20206;-47
2023/02/28 12:36:01;;;;;;;1.57;1.30;;;17.80;50.10;;;;;;5060605;28;20708;-47
2023/02/28 12:38:54;;;;;;;2.47;0.93;;;17.80;50.20;;;;;;5064896;28;20186;-47
2023/02/28 12:41:38;;;;;;;1.17;0.93;;;17.80;50.50;;;;;;5038395;28;20207;-47
2023/02/28 12:44:27;;;;;;;1.50;0.70;;;17.80;50.50;;;;;;5054531;28;20498;-47
2023/02/28 12:47:05;;;;;;;1.70;1.10;;;17.70;50.50;;;;;;5046060;28;20239;-46
2023/02/28 12:49:44;;;;;;;0.93;0.80;;;17.70;50.30;;;;;;5067254;28;20200;-46
2023/02/28 12:52:20;;;;;;;1.83;1.10;;;17.70;50.30;;;;;;5055841;28;20201;-46
2023/02/28 12:55:48;;;;;;;0.80;0.80;;;17.70;50.50;;;;;;5064859;28;20235;-47
2023/02/28 12:58:42;;;;;;;1.27;1.10;;;17.70;50.60;;;;;;5050471;28;20612;-47
2023/02/28 13:01:47;;;;;;;1.20;1.07;;;17.70;50.60;;;;;;5064326;28;20616;-47
2023/02/28 13:04:46;;;;;;;1.37;0.90;;;17.60;50.60;;;;;;5064739;28;20220;-48
2023/02/28 13:07:54;;;;;;;0.80;0.73;;;17.70;50.80;;;;;;5065238;28;20200;-47
2023/02/28 13:10:23;;;;;;;1.40;0.90;;;17.60;50.70;;;;;;5058933;28;20391;-47
2023/02/28 13:13:03;;;;;;;1.57;1.30;;;17.60;50.70;;;;;;5065286;28;20612;-47
2023/02/28 13:15:34;;;;;;;1.50;1.30;;;17.60;50.70;;;;;;5048234;28;20205;-47
2023/02/28 13:18:05;;;;;;;1.73;1.20;;;17.60;50.90;;;;;;5066092;28;20221;-47
2023/02/28 13:20:38;;;;;;;1.63;1.00;;;17.60;50.90;;;;;;5058884;28;20529;-46
2023/02/28 13:23:54;;;;;;;1.17;0.87;;;17.60;51.00;;;;;;5039282;28;20214;-46
2023/02/28 13:27:00;;;;;;;1.20;0.87;;;17.60;50.80;;;;;;5061808;28;20255;-46
2023/02/28 13:29:44;;;;;;;2.27;1.30;;;17.60;51.10;;;;;;5065417;28;20213;-47
2023/02/28 13:32:30;;;;;;;1.73;1.20;;;17.60;51.20;;;;;;5063147;28;20248;-46
2023/02/28 13:34:59;;;;;;;2.47;1.70;;;17.50;51.30;;;;;;5031914;28;20561;-46
2023/02/28 13:37:49;;;;;;;1.20;1.10;;;17.60;51.20;;;;;;5053132;28;20244;-47
2023/02/28 13:40:41;;;;;;;2.70;1.20;;;17.50;51.30;;;;;;5063431;28;20193;-46